Météo Nord-Pas-de-Calais   La météo au plus près de chez vous

Station météorologique

Observations météo à Etoile (26124)

26124001 145 m Dernier relevé à 10:42
25.1°C
Humidité 52 % Vent 6.5 km/h

Journée consultée

Vendredi 4 Septembre 2026

Synthèse de la journée

Périodes de référence en UTC

Température maximale

25.1°C

à 10:42

06h 06h

Température minimale

14.9°C

à 07:24

18h 18h

Rafale maximale

22 km/h

à 03:36

00h 00h

Précipitations

0 mm

Cumul quotidien

06h 06h

Ensoleillement

3h 10 mins

Durée quotidienne

00h 00h

Graphiques de la journée

Heure locale Réduire

Données détaillées

Relevés météo

Pas de 6 minutes Afficher les relevés infra-horaires
Relevés météo détaillés à Etoile pour le Vendredi 4 Septembre 2026
Heure Température °C Point de rosée °C Humidité % Vent moyen (raf.), km/h Précipitations mm Température à 10 cm °C Température à 20 cm °C Ensoleillement min Rayonnement global W/m²
10:42 25.1 °C 13 °C 47 % 6 km/h (11 km/h) 0 mm0 mm 22.5 °C 22.9 °C 6 min 215.1 W/m²
10:36 24.7 °C 12.9 °C 48 % 6 km/h (11 km/h) 0 mm0 mm 22.5 °C 23 °C 6 min 210.1 W/m²
10:30 24.3 °C 12.6 °C 48 % 6 km/h (12 km/h) 0 mm0 mm 22.5 °C 23 °C 6 min 205.1 W/m²
10:24 24.2 °C 12.8 °C 49 % 6 km/h (12 km/h) 0 mm0 mm 22.5 °C 23 °C 6 min 199.9 W/m²
10:18 24.2 °C 12.8 °C 49 % 6 km/h (14 km/h) 0 mm0 mm 22.5 °C 23 °C 6 min 194.5 W/m²
10:12 24.1 °C 12.4 °C 48 % 6 km/h (11 km/h) 0 mm0 mm 22.5 °C 23 °C 6 min 189.1 W/m²
10:06 23.7 °C 12.7 °C 50 % 6 km/h (11 km/h) 0 mm0 mm 22.5 °C 23 °C 6 min 183.5 W/m²
10:00 23.3 °C 12.6 °C 51 % 7 km/h (11 km/h) 0 mm0 mm 22.6 °C 23 °C 6 min 178.1 W/m²
09:54 23.2 °C 12.8 °C 52 % 8 km/h (12 km/h) 0 mm0 mm 22.6 °C 23 °C 6 min 172.2 W/m²
09:48 23 °C 12.9 °C 53 % 7 km/h (12 km/h) 0 mm0 mm 22.6 °C 23 °C 6 min 166 W/m²
09:42 22.6 °C 12.2 °C 52 % 6 km/h (11 km/h) 0 mm0 mm 22.6 °C 23 °C 6 min 159.9 W/m²
09:36 22.5 °C 12.4 °C 53 % 5 km/h (11 km/h) 0 mm0 mm 22.6 °C 23 °C 6 min 153.2 W/m²
09:30 22.4 °C 12.6 °C 54 % 5 km/h (11 km/h) 0 mm0 mm 22.6 °C 23 °C 6 min 147 W/m²
09:24 22.2 °C 12.4 °C 54 % 4 km/h (8 km/h) 0 mm0 mm 22.6 °C 23.1 °C 6 min 140.2 W/m²
09:18 21.6 °C 12.2 °C 55 % 3 km/h (7 km/h) 0 mm0 mm 22.6 °C 23.1 °C 6 min 133.6 W/m²
09:12 21.5 °C 12.3 °C 56 % 4 km/h (8 km/h) 0 mm0 mm 22.6 °C 23.1 °C 6 min 127.4 W/m²
09:06 21 °C 12.4 °C 58 % 5 km/h (10 km/h) 0 mm0 mm 22.7 °C 23.1 °C 6 min 121 W/m²
09:00 20.7 °C 12.4 °C 59 % 5 km/h (9 km/h) 0 mm0 mm 22.7 °C 23.1 °C 6 min 114.3 W/m²
08:54 20.5 °C 11.9 °C 58 % 4 km/h (8 km/h) 0 mm0 mm 22.7 °C 23.1 °C 6 min 107.4 W/m²
08:48 20.3 °C 12.3 °C 60 % 5 km/h (8 km/h) 0 mm0 mm 22.7 °C 23.1 °C 6 min 100.7 W/m²
08:42 20.1 °C 12.6 °C 62 % 4 km/h (8 km/h) 0 mm0 mm 22.7 °C 23.1 °C 6 min 93.6 W/m²
08:36 19.5 °C 12.5 °C 64 % 4 km/h (7 km/h) 0 mm0 mm 22.7 °C 23.1 °C 6 min 86.8 W/m²
08:30 18.9 °C 12.2 °C 65 % 5 km/h (7 km/h) 0 mm0 mm 22.8 °C 23.1 °C 6 min 79.8 W/m²
08:24 18.2 °C 12.2 °C 68 % 4 km/h (7 km/h) 0 mm0 mm 22.8 °C 23.1 °C 6 min 73 W/m²
08:18 17.6 °C 12.1 °C 70 % 4 km/h (6 km/h) 0 mm0 mm 22.8 °C 23.1 °C 6 min 66.4 W/m²
08:12 18 °C 12 °C 68 % 4 km/h (6 km/h) 0 mm0 mm 22.8 °C 23.1 °C 6 min 59.6 W/m²
08:06 17.4 °C 12.1 °C 71 % 4 km/h (6 km/h) 0 mm0 mm 22.8 °C 23.2 °C 6 min 51.1 W/m²
08:00 17 °C 11.9 °C 72 % 4 km/h (6 km/h) 0 mm0 mm 22.8 °C 23.2 °C 6 min 46 W/m²
07:54 16.7 °C 11.8 °C 73 % 4 km/h (6 km/h) 0 mm0 mm 22.9 °C 23.2 °C 6 min 40 W/m²
07:48 16.6 °C 11.9 °C 74 % 5 km/h (8 km/h) 0 mm0 mm 22.9 °C 23.2 °C 6 min 33.5 W/m²
07:42 16.3 °C 11.4 °C 73 % 5 km/h (8 km/h) 0 mm0 mm 22.9 °C 23.2 °C 6 min 27.2 W/m²
07:36 15.4 °C 11.4 °C 77 % 5 km/h (8 km/h) 0 mm0 mm 22.9 °C 23.2 °C 4 min 15.1 W/m²
07:30 14.9 °C 11.5 °C 80 % 5 km/h (8 km/h) 0 mm0 mm 22.9 °C 23.2 °C 0 min 5 W/m²
07:24 14.9 °C 11.5 °C 80 % 5 km/h (8 km/h) 0 mm0 mm 22.9 °C 23.2 °C 0 min 2.1 W/m²
07:18 15 °C 11.4 °C 79 % 4 km/h (7 km/h) 0 mm0 mm 22.9 °C 23.2 °C 0 min 0 W/m²
07:12 15.2 °C 11.4 °C 78 % 3 km/h (6 km/h) 0 mm0 mm 22.9 °C 23.2 °C 0 min 0 W/m²
07:06 15.6 °C 11.2 °C 75 % 4 km/h (8 km/h) 0 mm0 mm 23 °C 23.2 °C 0 min 0 W/m²
07:00 15.9 °C 11.3 °C 74 % 4 km/h (8 km/h) 0 mm0 mm 23 °C 23.2 °C 0 min 0 W/m²
06:54 15.6 °C 11.2 °C 75 % 3 km/h (6 km/h) 0 mm0 mm 23 °C 23.2 °C 0 min 0 W/m²
06:48 15.5 °C 11.3 °C 76 % 3 km/h (5 km/h) 0 mm0 mm 23 °C 23.2 °C 0 min 0 W/m²
06:42 15.3 °C 11.3 °C 77 % 4 km/h (5 km/h) 0 mm0 mm 23 °C 23.3 °C 0 min 0 W/m²
06:36 15.5 °C 11.3 °C 76 % 5 km/h (7 km/h) 0 mm0 mm 23 °C 23.3 °C 0 min 0 W/m²
06:30 16 °C 11.4 °C 74 % 6 km/h (8 km/h) 0 mm0 mm 23 °C 23.3 °C 0 min 0 W/m²
06:24 15.6 °C 11.4 °C 76 % 5 km/h (8 km/h) 0 mm0 mm 23.1 °C 23.3 °C 0 min 0 W/m²
06:18 15.7 °C 11.5 °C 76 % 4 km/h (6 km/h) 0 mm0 mm 23.1 °C 23.3 °C 0 min 0 W/m²
06:12 15.9 °C 11.3 °C 74 % 3 km/h (6 km/h) 0 mm0 mm 23.1 °C 23.3 °C 0 min 0 W/m²
06:06 16.4 °C 11.1 °C 71 % 5 km/h (7 km/h) 0 mm0 mm 23.1 °C 23.3 °C 0 min 0 W/m²
06:00 16.8 °C 11.5 °C 71 % 6 km/h (8 km/h) 0 mm0 mm 23.1 °C 23.3 °C 0 min 0 W/m²
05:54 17.1 °C 11.6 °C 70 % 6 km/h (8 km/h) 0 mm0 mm 23.1 °C 23.3 °C 0 min 0 W/m²
05:48 17.6 °C 11.6 °C 68 % 5 km/h (8 km/h) 0 mm0 mm 23.1 °C 23.3 °C 0 min 0 W/m²
05:42 17.4 °C 11.4 °C 68 % 4 km/h (8 km/h) 0 mm0 mm 23.1 °C 23.3 °C 0 min 0 W/m²
05:36 17.9 °C 11.5 °C 66 % 5 km/h (11 km/h) 0 mm0 mm 23.2 °C 23.3 °C 0 min 0 W/m²
05:30 18.5 °C 11.3 °C 63 % 7 km/h (12 km/h) 0 mm0 mm 23.2 °C 23.3 °C 0 min 0 W/m²
05:24 18.6 °C 11.4 °C 63 % 8 km/h (12 km/h) 0 mm0 mm 23.2 °C 23.3 °C 0 min 0 W/m²
05:18 18.5 °C 11.3 °C 63 % 7 km/h (12 km/h) 0 mm0 mm 23.2 °C 23.4 °C 0 min 0 W/m²
05:12 18.6 °C 11.4 °C 63 % 7 km/h (12 km/h) 0 mm0 mm 23.2 °C 23.4 °C 0 min 0 W/m²
05:06 18.6 °C 11.4 °C 63 % 9 km/h (13 km/h) 0 mm0 mm 23.2 °C 23.4 °C 0 min 0 W/m²
05:00 18.4 °C 11.5 °C 64 % 10 km/h (13 km/h) 0 mm0 mm 23.2 °C 23.4 °C 0 min 0 W/m²
04:54 18.2 °C 11.5 °C 65 % 9 km/h (12 km/h) 0 mm0 mm 23.3 °C 23.4 °C 0 min 0 W/m²
04:48 18.4 °C 11.2 °C 63 % 7 km/h (10 km/h) 0 mm0 mm 23.3 °C 23.4 °C 0 min 0 W/m²
04:42 19 °C 11.3 °C 61 % 6 km/h (9 km/h) 0 mm0 mm 23.3 °C 23.4 °C 0 min 0 W/m²
04:36 18.8 °C 11.4 °C 62 % 5 km/h (9 km/h) 0 mm0 mm 23.3 °C 23.4 °C 0 min 0 W/m²
04:30 18.5 °C 11.3 °C 63 % 5 km/h (9 km/h) 0 mm0 mm 23.3 °C 23.4 °C 0 min 0 W/m²
04:24 18.3 °C 11.4 °C 64 % 5 km/h (9 km/h) 0 mm0 mm 23.3 °C 23.4 °C 0 min 0 W/m²
04:18 18.7 °C 11.5 °C 63 % 5 km/h (9 km/h) 0 mm0 mm 23.3 °C 23.4 °C 0 min 0 W/m²
04:12 19.2 °C 11.5 °C 61 % 4 km/h (8 km/h) 0 mm0 mm 23.3 °C 23.4 °C 0 min 0 W/m²
04:06 19.7 °C 11.5 °C 59 % 3 km/h (6 km/h) 0 mm0 mm 23.4 °C 23.4 °C 0 min 0 W/m²
04:00 19.9 °C 11.4 °C 58 % 5 km/h (15 km/h) 0 mm0 mm 23.4 °C 23.4 °C 0 min 0 W/m²
03:54 20.4 °C 11.3 °C 56 % 11 km/h (20 km/h) 0 mm0 mm 23.4 °C 23.4 °C 0 min 0 W/m²
03:48 20.4 °C 11.3 °C 56 % 12 km/h (20 km/h) 0 mm0 mm 23.4 °C 23.4 °C 0 min 0 W/m²
03:42 20.5 °C 11.4 °C 56 % 13 km/h (22 km/h) 0 mm0 mm 23.4 °C 23.4 °C 0 min 0 W/m²
03:36 20.6 °C 11.5 °C 56 % 13 km/h (22 km/h) 0 mm0 mm 23.4 °C 23.5 °C 0 min 0 W/m²
03:30 20.5 °C 11.4 °C 56 % 13 km/h (21 km/h) 0 mm0 mm 23.4 °C 23.4 °C 0 min 0 W/m²
03:24 20.4 °C 11.3 °C 56 % 13 km/h (20 km/h) 0 mm0 mm 23.4 °C 23.5 °C 0 min 0 W/m²
03:18 20.4 °C 11.3 °C 56 % 13 km/h (19 km/h) 0 mm0 mm 23.5 °C 23.5 °C 0 min 0 W/m²
03:12 20.2 °C 11.4 °C 57 % 12 km/h (19 km/h) 0 mm0 mm 23.5 °C 23.5 °C 0 min 0 W/m²
03:06 20.2 °C 11.4 °C 57 % 12 km/h (17 km/h) 0 mm0 mm 23.5 °C 23.5 °C 0 min 0 W/m²
03:00 20.2 °C 11.4 °C 57 % 13 km/h (22 km/h) 0 mm0 mm 23.5 °C 23.5 °C 0 min 0 W/m²
02:54 20.3 °C 11.2 °C 56 % 13 km/h (22 km/h) 0 mm0 mm 23.5 °C 23.5 °C 0 min 0 W/m²
02:48 20.4 °C 11.3 °C 56 % 13 km/h (21 km/h) 0 mm0 mm 23.5 °C 23.5 °C 0 min 0 W/m²
02:42 20.5 °C 11.1 °C 55 % 12 km/h (21 km/h) 0 mm0 mm 23.6 °C 23.5 °C 0 min 0 W/m²
02:36 20.5 °C 11.1 °C 55 % 12 km/h (18 km/h) 0 mm0 mm 23.6 °C 23.5 °C 0 min 0 W/m²
02:30 20.5 °C 11.1 °C 55 % 12 km/h (17 km/h) 0 mm0 mm 23.6 °C 23.5 °C 0 min 0 W/m²
02:24 20.4 °C 11.3 °C 56 % 12 km/h (16 km/h) 0 mm0 mm 23.6 °C 23.5 °C 0 min 0 W/m²
02:18 19.9 °C 11.4 °C 58 % 12 km/h (15 km/h) 0 mm0 mm 23.6 °C 23.5 °C 0 min 0 W/m²
02:12 19.7 °C 11.5 °C 59 % 10 km/h (14 km/h) 0 mm0 mm 23.6 °C 23.5 °C 0 min 0 W/m²
02:06 20 °C 11.5 °C 58 % 9 km/h (14 km/h) 0 mm0 mm 23.6 °C 23.5 °C 0 min 0 W/m²
02:00 20 °C 11.2 °C 57 % 11 km/h (14 km/h) 0 mm0 mm 23.6 °C 23.5 °C 0 min 0 W/m²
01:54 20.5 °C 11.1 °C 55 % 9 km/h (14 km/h) 0 mm0 mm 23.6 °C 23.5 °C 0 min 0 W/m²
01:48 21.7 °C 11.1 °C 51 % 8 km/h (14 km/h) 0 mm0 mm 23.7 °C 23.5 °C 0 min 0 W/m²
01:42 21.5 °C 11.2 °C 52 % 8 km/h (13 km/h) 0 mm0 mm 23.7 °C 23.6 °C 0 min 0 W/m²
01:36 21.7 °C 11.1 °C 51 % 10 km/h (19 km/h) 0 mm0 mm 23.7 °C 23.6 °C 0 min 0 W/m²
01:30 22.6 °C 11.3 °C 49 % 12 km/h (19 km/h) 0 mm0 mm 23.7 °C 23.6 °C 0 min 0 W/m²
01:24 22.5 °C 11.2 °C 49 % 12 km/h (17 km/h) 0 mm0 mm 23.7 °C 23.6 °C 0 min 0 W/m²
01:18 22.9 °C 11 °C 47 % 13 km/h (17 km/h) 0 mm0 mm 23.7 °C 23.6 °C 0 min 0 W/m²
01:12 23 °C 11.4 °C 48 % 10 km/h (17 km/h) 0 mm0 mm 23.7 °C 23.6 °C 0 min 0 W/m²
01:06 22.4 °C 11.2 °C 49 % 9 km/h (15 km/h) 0 mm0 mm 23.7 °C 23.6 °C 0 min 0 W/m²
01:00 23.6 °C 11.3 °C 46 % 12 km/h (18 km/h) 0 mm0 mm 23.8 °C 23.6 °C 0 min 0 W/m²
00:54 23.8 °C 11.1 °C 45 % 13 km/h (20 km/h) 0 mm0 mm 23.8 °C 23.6 °C 0 min 0 W/m²
00:48 23.7 °C 11.1 °C 45 % 13 km/h (20 km/h) 0 mm0 mm 23.8 °C 23.6 °C 0 min 0 W/m²
00:42 23.4 °C 11.1 °C 46 % 10 km/h (18 km/h) 0 mm0 mm 23.8 °C 23.6 °C 0 min 0 W/m²
00:36 23.1 °C 11.2 °C 47 % 7 km/h (14 km/h) 0 mm0 mm 23.8 °C 23.6 °C 0 min 0 W/m²
00:30 23.2 °C 11.3 °C 47 % 5 km/h (10 km/h) 0 mm0 mm 23.8 °C 23.6 °C 0 min 0 W/m²
00:24 23.4 °C 11.1 °C 46 % 6 km/h (10 km/h) 0 mm0 mm 23.8 °C 23.6 °C 0 min 0 W/m²
00:18 23.4 °C 11.1 °C 46 % 5 km/h (10 km/h) 0 mm0 mm 23.8 °C 23.6 °C 0 min 0 W/m²
00:12 23.6 °C 11 °C 45 % 6 km/h (12 km/h) 0 mm0 mm 23.8 °C 23.6 °C 0 min 0 W/m²
00:06 24 °C 11 °C 44 % 8 km/h (14 km/h) 0 mm0 mm 23.9 °C 23.6 °C 0 min 0 W/m²
00:00 24.5 °C 11.1 °C 43 % 11 km/h (18 km/h) 0 mm0 mm 23.9 °C 23.6 °C 0 min 0 W/m²

Données via Météo-France

Relevés météo à Etoile

Cette page rassemble les observations de la station de Etoile : température, humidité, vent, précipitations et pression atmosphérique. Les graphiques facilitent le suivi de la journée, tandis que le tableau donne accès aux mesures horaires et infra-horaires disponibles.

Pour replacer ces mesures dans leur contexte, consultez la climatologie de Etoile ainsi que ses normales et records. Retrouvez aussi la carte des observations météo en temps réel.